Time;durP1;ratioP1;P1;durP2;ratioP2;P2;SDS_P1;SDS_P2;PMS_P1;PMS_P2;Temp;Humidity;BMP_temperature;BMP_pressure;BME280_temperature;BME280_humidity;BME280_pressure;Samples;Min_cycle;Max_cycle;Signal;HPM_P1;HPM_P2
2023/07/31 00:02:22;;;;;;;3.67;1.77;;;;;;;;;;4988728;28;20209;-60
2023/07/31 00:04:48;;;;;;;3.35;1.80;;;;;;;;;;4987863;28;20630;-60
2023/07/31 00:07:14;;;;;;;4.45;1.90;;;;;;;;;;4987062;28;20614;-60
2023/07/31 00:09:39;;;;;;;7.38;1.85;;;;;;;;;;4989035;28;20836;-60
2023/07/31 00:12:04;;;;;;;3.72;1.70;;;;;;;;;;4988190;28;20563;-61
2023/07/31 00:14:30;;;;;;;5.53;1.80;;;;;;;;;;4986617;28;20213;-60
2023/07/31 00:16:55;;;;;;;5.50;1.48;;;;;;;;;;4989205;28;20213;-60
2023/07/31 00:19:20;;;;;;;2.08;1.50;;;;;;;;;;4988007;28;20217;-60
2023/07/31 00:21:45;;;;;;;3.22;1.65;;;;;;;;;;4987560;28;20217;-60
2023/07/31 00:24:11;;;;;;;2.03;1.30;;;;;;;;;;4987297;28;20316;-59
2023/07/31 00:26:36;;;;;;;2.60;1.40;;;;;;;;;;4988064;28;20217;-59
2023/07/31 00:29:01;;;;;;;9.48;1.60;;;;;;;;;;4987972;28;20247;-60
2023/07/31 00:31:27;;;;;;;2.25;1.30;;;;;;;;;;4986833;28;20228;-60
2023/07/31 00:33:52;;;;;;;2.20;1.30;;;;;;;;;;4988209;28;20221;-59
2023/07/31 00:36:18;;;;;;;1.73;1.20;;;;;;;;;;4988559;28;20254;-60
2023/07/31 00:38:43;;;;;;;3.13;1.33;;;;;;;;;;4986500;28;20217;-60
2023/07/31 00:41:08;;;;;;;3.78;1.50;;;;;;;;;;4987225;28;20213;-60
2023/07/31 00:43:33;;;;;;;2.40;1.45;;;;;;;;;;4988884;28;20217;-60
2023/07/31 00:45:59;;;;;;;4.40;1.40;;;;;;;;;;4987249;28;20209;-60
2023/07/31 00:48:24;;;;;;;3.70;1.60;;;;;;;;;;4985940;28;20232;-60
2023/07/31 00:50:50;;;;;;;2.28;1.13;;;;;;;;;;4988785;28;20343;-60
2023/07/31 00:53:15;;;;;;;2.83;1.38;;;;;;;;;;4987481;28;20301;-60
2023/07/31 00:55:40;;;;;;;2.75;1.55;;;;;;;;;;4968570;28;20296;-59
2023/07/31 00:58:05;;;;;;;2.90;1.90;;;;;;;;;;4970753;28;20220;-60
2023/07/31 01:00:31;;;;;;;4.20;2.30;;;;;;;;;;4988588;28;20267;-60
2023/07/31 01:02:56;;;;;;;6.13;2.40;;;;;;;;;;4985709;28;20720;-60
2023/07/31 01:05:25;;;;;;;6.30;3.13;;;;;;;;;;4987797;28;20224;-60
2023/07/31 01:07:52;;;;;;;8.13;3.17;;;;;;;;;;4988361;28;20696;-60
2023/07/31 01:10:21;;;;;;;7.80;3.45;;;;;;;;;;4965836;28;20221;-60
2023/07/31 01:12:46;;;;;;;9.38;4.50;;;;;;;;;;4966298;28;20217;-60
2023/07/31 01:15:11;;;;;;;15.95;6.15;;;;;;;;;;4987561;28;20216;-60
2023/07/31 01:17:37;;;;;;;16.77;6.75;;;;;;;;;;4988363;28;20625;-60
2023/07/31 01:20:03;;;;;;;22.90;7.22;;;;;;;;;;4986561;28;20201;-60
2023/07/31 01:22:29;;;;;;;22.52;8.05;;;;;;;;;;4973426;28;20603;-60
2023/07/31 01:24:54;;;;;;;23.15;9.45;;;;;;;;;;4992490;28;20779;-60
2023/07/31 01:27:21;;;;;;;26.50;10.10;;;;;;;;;;4990479;28;20371;-60
2023/07/31 01:29:47;;;;;;;25.98;10.27;;;;;;;;;;4972994;28;20221;-60
2023/07/31 01:32:12;;;;;;;26.55;10.35;;;;;;;;;;4984631;28;20560;-60
2023/07/31 01:34:37;;;;;;;32.20;10.55;;;;;;;;;;4964145;28;20209;-60
2023/07/31 01:37:03;;;;;;;26.00;9.95;;;;;;;;;;4979408;28;20740;-59
2023/07/31 01:39:28;;;;;;;27.23;10.50;;;;;;;;;;4982668;28;20244;-60
2023/07/31 01:41:53;;;;;;;26.27;11.18;;;;;;;;;;4981981;28;20274;-60
2023/07/31 01:44:19;;;;;;;32.20;11.43;;;;;;;;;;4974608;28;20891;-60
2023/07/31 01:46:44;;;;;;;26.05;9.85;;;;;;;;;;4974064;28;20725;-60
2023/07/31 01:49:09;;;;;;;27.42;10.23;;;;;;;;;;4973724;28;20217;-60
2023/07/31 01:51:35;;;;;;;31.67;9.77;;;;;;;;;;4977458;28;20292;-60
2023/07/31 01:54:00;;;;;;;23.27;9.80;;;;;;;;;;4981167;28;20224;-60
2023/07/31 01:56:25;;;;;;;25.95;9.35;;;;;;;;;;4981279;28;20334;-60
2023/07/31 01:58:51;;;;;;;30.48;9.65;;;;;;;;;;4981330;28;20217;-60
2023/07/31 02:01:16;;;;;;;24.42;9.93;;;;;;;;;;4979838;28;20221;-60
2023/07/31 02:03:42;;;;;;;29.48;10.45;;;;;;;;;;4981706;28;20311;-59
2023/07/31 02:06:07;;;;;;;25.30;9.70;;;;;;;;;;4978012;28;20240;-60
2023/07/31 02:08:32;;;;;;;26.77;10.07;;;;;;;;;;4972769;28;20648;-60
2023/07/31 02:10:58;;;;;;;29.25;10.30;;;;;;;;;;4974132;28;20217;-59
2023/07/31 02:13:23;;;;;;;25.27;9.80;;;;;;;;;;4975334;28;20209;-60
2023/07/31 02:15:48;;;;;;;34.78;9.85;;;;;;;;;;4981022;28;20221;-59
2023/07/31 02:18:13;;;;;;;24.63;9.00;;;;;;;;;;4979052;28;20231;-60
2023/07/31 02:20:39;;;;;;;27.02;9.40;;;;;;;;;;4981757;28;20225;-60
2023/07/31 02:23:04;;;;;;;22.05;8.73;;;;;;;;;;4980833;28;20224;-60
2023/07/31 02:25:29;;;;;;;26.00;9.02;;;;;;;;;;4979094;28;20579;-60
2023/07/31 02:27:54;;;;;;;23.90;9.10;;;;;;;;;;4981320;28;20542;-60
2023/07/31 02:30:20;;;;;;;22.90;9.50;;;;;;;;;;4973646;28;20233;-60
2023/07/31 02:32:45;;;;;;;23.88;8.73;;;;;;;;;;4976695;28;20221;-60
2023/07/31 02:35:15;;;;;;;26.98;9.40;;;;;;;;;;4988259;28;20704;-60
2023/07/31 02:37:40;;;;;;;25.40;9.20;;;;;;;;;;4991127;28;20307;-60
2023/07/31 02:40:05;;;;;;;21.65;8.50;;;;;;;;;;4988819;28;20339;-60
2023/07/31 02:42:31;;;;;;;22.58;9.43;;;;;;;;;;4989111;28;20592;-60
2023/07/31 02:44:56;;;;;;;23.63;8.52;;;;;;;;;;4990813;28;20774;-60
2023/07/31 02:47:22;;;;;;;21.05;8.30;;;;;;;;;;4989478;28;20283;-61
2023/07/31 02:49:47;;;;;;;24.25;8.45;;;;;;;;;;4987833;28;20209;-60
2023/07/31 02:52:12;;;;;;;18.55;7.90;;;;;;;;;;4990292;28;20231;-60
2023/07/31 02:54:38;;;;;;;25.02;8.88;;;;;;;;;;4989880;28;20217;-60
2023/07/31 02:57:03;;;;;;;18.48;7.75;;;;;;;;;;4988950;28;20231;-60
2023/07/31 02:59:29;;;;;;;21.15;8.23;;;;;;;;;;4989294;28;20213;-60
2023/07/31 03:01:54;;;;;;;22.70;8.65;;;;;;;;;;4990098;28;20216;-60
2023/07/31 03:04:19;;;;;;;23.52;8.18;;;;;;;;;;4989377;28;20646;-60
2023/07/31 03:06:45;;;;;;;20.33;8.13;;;;;;;;;;4988284;28;20480;-60
2023/07/31 03:09:10;;;;;;;23.10;8.63;;;;;;;;;;4989074;28;20216;-60
2023/07/31 03:11:35;;;;;;;24.20;8.73;;;;;;;;;;4990502;28;20259;-60
2023/07/31 03:14:00;;;;;;;27.55;8.60;;;;;;;;;;4987758;28;20686;-60
2023/07/31 03:16:26;;;;;;;21.98;8.93;;;;;;;;;;4989349;28;20217;-59
2023/07/31 03:18:51;;;;;;;22.17;8.43;;;;;;;;;;4990105;28;20216;-60
2023/07/31 03:21:16;;;;;;;22.75;8.23;;;;;;;;;;4988474;28;20296;-60
2023/07/31 03:23:43;;;;;;;20.63;8.52;;;;;;;;;;4988041;28;20225;-60
2023/07/31 03:26:08;;;;;;;27.10;9.13;;;;;;;;;;4975422;28;20283;-60
2023/07/31 03:28:34;;;;;;;24.33;8.68;;;;;;;;;;4974606;28;20221;-60
2023/07/31 03:30:59;;;;;;;25.00;9.00;;;;;;;;;;4977743;28;20391;-59
2023/07/31 03:33:25;;;;;;;26.63;8.98;;;;;;;;;;4980150;28;20221;-60
2023/07/31 03:35:50;;;;;;;22.80;8.75;;;;;;;;;;4979354;28;20225;-60
2023/07/31 03:38:15;;;;;;;26.00;8.73;;;;;;;;;;4978344;28;20213;-60
2023/07/31 03:40:40;;;;;;;24.38;8.73;;;;;;;;;;4979446;28;20248;-60
2023/07/31 03:43:06;;;;;;;24.90;8.23;;;;;;;;;;4978308;28;20228;-60
2023/07/31 03:45:31;;;;;;;23.85;8.65;;;;;;;;;;4971704;28;20220;-60
2023/07/31 03:47:56;;;;;;;26.10;8.32;;;;;;;;;;4970892;28;20303;-60
2023/07/31 03:50:22;;;;;;;37.00;8.85;;;;;;;;;;4971169;28;20245;-60
2023/07/31 03:52:47;;;;;;;20.88;8.20;;;;;;;;;;4979746;28;20307;-60
2023/07/31 03:55:12;;;;;;;23.38;7.90;;;;;;;;;;4977316;28;20224;-60
2023/07/31 03:57:37;;;;;;;19.50;8.20;;;;;;;;;;4979324;28;20300;-60
2023/07/31 04:00:03;;;;;;;21.27;8.27;;;;;;;;;;4978981;28;20213;-60
2023/07/31 04:02:28;;;;;;;24.90;8.40;;;;;;;;;;4975457;28;20296;-59
2023/07/31 04:04:54;;;;;;;30.45;8.73;;;;;;;;;;4978519;28;20360;-59
2023/07/31 04:07:19;;;;;;;20.23;7.55;;;;;;;;;;4974772;28;20220;-60
2023/07/31 04:09:44;;;;;;;25.35;8.00;;;;;;;;;;4971264;28;20221;-60
2023/07/31 04:12:09;;;;;;;20.17;7.28;;;;;;;;;;4969594;28;20209;-60
2023/07/31 04:14:35;;;;;;;21.00;7.70;;;;;;;;;;4976704;28;20248;-60
2023/07/31 04:17:00;;;;;;;22.77;8.20;;;;;;;;;;4979861;28;20209;-60
2023/07/31 04:19:26;;;;;;;22.33;7.45;;;;;;;;;;4975725;28;20228;-59
2023/07/31 04:21:51;;;;;;;18.75;7.10;;;;;;;;;;4979621;28;20279;-59
2023/07/31 04:24:22;;;;;;;20.38;7.93;;;;;;;;;;4979174;28;20261;-60
2023/07/31 04:26:47;;;;;;;22.42;7.72;;;;;;;;;;4977416;28;20240;-59
2023/07/31 04:29:12;;;;;;;19.90;7.93;;;;;;;;;;4975356;28;20355;-59
2023/07/31 04:31:38;;;;;;;21.98;7.70;;;;;;;;;;4971588;28;20777;-59
2023/07/31 04:34:03;;;;;;;25.50;7.63;;;;;;;;;;4969796;28;20225;-60
2023/07/31 04:36:28;;;;;;;21.83;8.13;;;;;;;;;;4971872;28;20299;-60
2023/07/31 04:38:53;;;;;;;25.38;8.45;;;;;;;;;;4978887;28;20241;-59
2023/07/31 04:41:19;;;;;;;134.25;17.08;;;;;;;;;;4978500;28;20324;-59
2023/07/31 04:43:44;;;;;;;62.22;11.13;;;;;;;;;;4977025;28;20906;-59
2023/07/31 04:46:10;;;;;;;25.80;8.00;;;;;;;;;;4977818;28;20575;-60
2023/07/31 04:48:35;;;;;;;99.07;12.63;;;;;;;;;;4980061;28;20240;-60
2023/07/31 04:51:00;;;;;;;23.30;7.70;;;;;;;;;;4980929;28;20219;-60
2023/07/31 04:53:26;;;;;;;20.65;7.38;;;;;;;;;;4968997;28;20629;-60
2023/07/31 04:55:51;;;;;;;25.98;8.00;;;;;;;;;;4970535;28;20259;-60
2023/07/31 04:58:16;;;;;;;17.58;7.10;;;;;;;;;;4971127;28;20217;-59
2023/07/31 05:00:42;;;;;;;19.65;7.57;;;;;;;;;;4976404;28;20209;-59
2023/07/31 05:03:07;;;;;;;29.63;8.43;;;;;;;;;;4977395;28;21287;-59
2023/07/31 05:05:32;;;;;;;18.27;7.18;;;;;;;;;;4978960;28;20308;-60
2023/07/31 05:07:58;;;;;;;21.77;8.40;;;;;;;;;;4977270;28;20255;-59
2023/07/31 05:10:23;;;;;;;19.13;7.13;;;;;;;;;;4976682;28;20287;-59
2023/07/31 05:12:48;;;;;;;19.88;7.47;;;;;;;;;;4978846;28;20279;-59
2023/07/31 05:15:14;;;;;;;21.88;7.03;;;;;;;;;;4973339;28;20573;-59
2023/07/31 05:17:39;;;;;;;25.48;7.32;;;;;;;;;;4969049;28;20308;-59
2023/07/31 05:20:04;;;;;;;20.17;6.75;;;;;;;;;;4970526;28;20205;-59
2023/07/31 05:22:30;;;;;;;22.58;7.22;;;;;;;;;;4975367;28;20217;-59
2023/07/31 05:24:55;;;;;;;20.35;7.15;;;;;;;;;;4977542;28;20578;-59
2023/07/31 05:27:20;;;;;;;25.67;7.40;;;;;;;;;;4977466;28;20229;-59
2023/07/31 05:29:46;;;;;;;19.08;7.00;;;;;;;;;;4977833;28;20303;-59
2023/07/31 05:32:11;;;;;;;18.95;7.15;;;;;;;;;;4978033;28;20259;-59
2023/07/31 05:34:37;;;;;;;16.63;6.70;;;;;;;;;;4982681;28;20264;-59
2023/07/31 05:37:02;;;;;;;17.55;6.82;;;;;;;;;;4986391;28;21700;-60
2023/07/31 05:39:27;;;;;;;18.90;6.65;;;;;;;;;;4988012;28;20224;-60
2023/07/31 05:41:52;;;;;;;20.42;6.53;;;;;;;;;;4985779;28;20381;-59
2023/07/31 05:44:18;;;;;;;17.13;6.20;;;;;;;;;;4985887;28;20328;-58
2023/07/31 05:46:43;;;;;;;14.75;6.07;;;;;;;;;;4987109;28;20227;-59
2023/07/31 05:49:08;;;;;;;22.10;6.60;;;;;;;;;;4985790;28;20234;-59
2023/07/31 05:51:34;;;;;;;18.40;6.40;;;;;;;;;;4985385;28;20270;-59
2023/07/31 05:53:59;;;;;;;17.08;6.28;;;;;;;;;;4987558;28;20213;-59
2023/07/31 05:56:27;;;;;;;21.95;6.82;;;;;;;;;;4968912;28;20671;-60
2023/07/31 05:58:52;;;;;;;20.33;6.22;;;;;;;;;;4985487;28;20272;-60
2023/07/31 06:01:17;;;;;;;20.73;6.72;;;;;;;;;;4986759;28;20221;-60
2023/07/31 06:03:43;;;;;;;16.38;5.68;;;;;;;;;;4986690;28;20306;-60
2023/07/31 06:06:08;;;;;;;17.92;6.65;;;;;;;;;;4986072;28;20272;-60
2023/07/31 06:08:33;;;;;;;17.42;6.45;;;;;;;;;;4990364;28;20210;-59
2023/07/31 06:10:58;;;;;;;15.73;6.40;;;;;;;;;;4989926;28;20276;-59
2023/07/31 06:13:24;;;;;;;16.27;6.90;;;;;;;;;;4970565;28;20896;-60
2023/07/31 06:15:49;;;;;;;17.50;7.33;;;;;;;;;;4988491;28;20444;-59
2023/07/31 06:18:14;;;;;;;17.00;6.13;;;;;;;;;;4990204;28;20213;-59
2023/07/31 06:20:40;;;;;;;15.48;5.80;;;;;;;;;;4990577;28;20785;-60
2023/07/31 06:23:06;;;;;;;14.32;5.80;;;;;;;;;;4988337;28;20236;-60
2023/07/31 06:25:31;;;;;;;14.35;5.63;;;;;;;;;;4989768;28;20284;-60
2023/07/31 06:27:56;;;;;;;13.35;5.82;;;;;;;;;;4991370;28;20221;-60
2023/07/31 06:30:21;;;;;;;15.20;5.05;;;;;;;;;;4988819;28;20225;-62
2023/07/31 06:32:47;;;;;;;14.02;5.35;;;;;;;;;;4989016;28;20228;-60
2023/07/31 06:35:12;;;;;;;14.15;5.28;;;;;;;;;;4990234;28;20678;-60
2023/07/31 06:37:40;;;;;;;15.23;6.05;;;;;;;;;;4989714;28;20221;-60
2023/07/31 06:40:07;;;;;;;15.77;5.53;;;;;;;;;;4985347;28;20962;-60
2023/07/31 06:42:32;;;;;;;14.63;5.30;;;;;;;;;;4991018;28;20287;-60
2023/07/31 06:44:57;;;;;;;11.93;4.75;;;;;;;;;;4990319;28;20688;-60
2023/07/31 06:47:23;;;;;;;10.32;4.88;;;;;;;;;;4987289;28;20252;-60
2023/07/31 06:49:48;;;;;;;14.88;4.93;;;;;;;;;;4990718;28;20506;-60
2023/07/31 06:52:13;;;;;;;12.00;5.20;;;;;;;;;;4990668;28;21183;-60
2023/07/31 06:54:39;;;;;;;13.48;5.20;;;;;;;;;;4988519;28;20221;-60
2023/07/31 06:57:04;;;;;;;11.20;5.30;;;;;;;;;;4989187;28;20205;-60
2023/07/31 06:59:30;;;;;;;13.10;5.20;;;;;;;;;;4990837;28;20263;-60
2023/07/31 07:01:55;;;;;;;11.20;5.20;;;;;;;;;;4989580;28;20318;-60
2023/07/31 07:04:20;;;;;;;11.43;4.88;;;;;;;;;;4988268;28;20303;-61
2023/07/31 07:06:46;;;;;;;11.73;4.85;;;;;;;;;;4989584;28;20240;-60
2023/07/31 07:09:12;;;;;;;10.40;4.38;;;;;;;;;;4990156;28;20304;-60
2023/07/31 07:11:37;;;;;;;16.00;4.28;;;;;;;;;;4987940;28;20252;-60
2023/07/31 07:14:03;;;;;;;12.63;4.28;;;;;;;;;;4988893;28;20240;-60
2023/07/31 07:16:28;;;;;;;9.45;3.63;;;;;;;;;;4989389;28;20221;-60
2023/07/31 07:18:53;;;;;;;8.85;3.10;;;;;;;;;;4988292;28;20225;-60
2023/07/31 07:21:19;;;;;;;7.13;3.05;;;;;;;;;;4987291;28;20224;-60
2023/07/31 07:23:44;;;;;;;7.82;3.22;;;;;;;;;;4990463;28;20261;-60
2023/07/31 07:26:09;;;;;;;7.13;3.00;;;;;;;;;;4989458;28;20295;-60
2023/07/31 07:28:37;;;;;;;6.45;2.53;;;;;;;;;;4987428;28;20271;-60
2023/07/31 07:31:02;;;;;;;6.72;2.60;;;;;;;;;;4989415;28;20221;-60
2023/07/31 07:33:27;;;;;;;6.55;2.42;;;;;;;;;;4990235;28;20216;-61
2023/07/31 07:35:52;;;;;;;7.07;2.33;;;;;;;;;;4987567;28;20217;-60
2023/07/31 07:38:19;;;;;;;15.85;2.63;;;;;;;;;;4988885;28;20220;-60
2023/07/31 07:40:44;;;;;;;3.13;1.85;;;;;;;;;;4989832;28;20205;-61
2023/07/31 07:43:10;;;;;;;13.30;2.50;;;;;;;;;;4987699;28;20229;-61
2023/07/31 07:45:35;;;;;;;4.97;1.65;;;;;;;;;;4988038;28;20301;-60
2023/07/31 07:48:00;;;;;;;3.03;1.40;;;;;;;;;;4989795;28;20225;-60
2023/07/31 07:50:25;;;;;;;12.75;2.03;;;;;;;;;;4988540;28;20216;-60
2023/07/31 07:52:51;;;;;;;4.35;1.40;;;;;;;;;;4987435;28;20303;-60
2023/07/31 07:55:16;;;;;;;3.67;1.30;;;;;;;;;;4989302;28;20213;-60
2023/07/31 07:57:42;;;;;;;4.15;1.27;;;;;;;;;;4988955;28;20221;-60
2023/07/31 08:00:10;;;;;;;9.15;1.58;;;;;;;;;;4987348;28;20209;-60
2023/07/31 08:02:35;;;;;;;11.65;1.77;;;;;;;;;;4988280;28;20272;-60
2023/07/31 08:05:00;;;;;;;3.47;1.45;;;;;;;;;;4988664;28;20224;-60
2023/07/31 08:07:26;;;;;;;9.30;1.75;;;;;;;;;;4989119;28;20324;-60
2023/07/31 08:09:51;;;;;;;6.22;1.40;;;;;;;;;;4987409;28;20221;-60
2023/07/31 08:12:16;;;;;;;5.35;1.30;;;;;;;;;;4970572;28;20213;-60
2023/07/31 08:14:42;;;;;;;24.05;2.80;;;;;;;;;;4989854;28;20209;-60
2023/07/31 08:17:07;;;;;;;22.02;2.35;;;;;;;;;;4985940;28;20707;-60
2023/07/31 08:19:32;;;;;;;2.60;1.67;;;;;;;;;;4989201;28;20213;-60
2023/07/31 08:21:57;;;;;;;2.03;1.40;;;;;;;;;;4989313;28;20221;-60
2023/07/31 08:24:23;;;;;;;4.40;1.40;;;;;;;;;;4986829;28;20308;-59
2023/07/31 08:26:48;;;;;;;2.22;1.40;;;;;;;;;;4987430;28;20283;-60
2023/07/31 08:29:13;;;;;;;2.22;1.52;;;;;;;;;;4988108;28;20209;-60
2023/07/31 08:31:39;;;;;;;2.60;1.63;;;;;;;;;;4987749;28;20228;-60
2023/07/31 08:34:04;;;;;;;6.78;1.70;;;;;;;;;;4986390;28;20217;-60
2023/07/31 08:36:29;;;;;;;3.95;1.85;;;;;;;;;;4992591;28;20644;-60
2023/07/31 08:38:54;;;;;;;11.70;1.98;;;;;;;;;;4991032;28;20217;-59
2023/07/31 08:41:20;;;;;;;2.45;1.70;;;;;;;;;;4989948;28;20237;-60
2023/07/31 08:43:45;;;;;;;5.72;2.05;;;;;;;;;;4990734;28;20229;-60
2023/07/31 08:46:10;;;;;;;5.07;1.98;;;;;;;;;;4989707;28;20211;-60
2023/07/31 08:48:36;;;;;;;2.58;2.00;;;;;;;;;;4990791;28;20308;-59
2023/07/31 08:51:01;;;;;;;5.35;2.42;;;;;;;;;;4973273;28;20220;-59
2023/07/31 08:53:26;;;;;;;5.45;2.30;;;;;;;;;;4990164;28;20209;-60
2023/07/31 08:55:54;;;;;;;12.80;3.22;;;;;;;;;;4990878;28;20233;-59
2023/07/31 08:58:19;;;;;;;10.55;2.90;;;;;;;;;;4990281;28;20213;-60
2023/07/31 09:00:45;;;;;;;7.95;2.30;;;;;;;;;;4990102;28;20224;-60
2023/07/31 09:03:17;;;;;;;4.20;2.20;;;;;;;;;;4990136;28;20216;-60
2023/07/31 09:05:43;;;;;;;3.00;2.00;;;;;;;;;;4990885;28;20223;-60
2023/07/31 09:08:09;;;;;;;3.85;2.60;;;;;;;;;;4989555;28;20205;-59
2023/07/31 09:10:34;;;;;;;3.38;2.20;;;;;;;;;;4990951;28;20216;-60
2023/07/31 09:13:00;;;;;;;3.40;2.28;;;;;;;;;;4990633;28;20217;-59
2023/07/31 09:15:25;;;;;;;23.50;3.47;;;;;;;;;;4990063;28;20228;-59
2023/07/31 09:17:58;;;;;;;7.13;2.55;;;;;;;;;;4986583;28;20236;-60
2023/07/31 09:20:23;;;;;;;5.85;2.38;;;;;;;;;;4987657;28;20216;-60
2023/07/31 09:22:49;;;;;;;7.20;3.10;;;;;;;;;;4989914;28;20213;-60
2023/07/31 09:25:14;;;;;;;3.22;2.35;;;;;;;;;;4985119;28;20231;-60
2023/07/31 09:27:46;;;;;;;2.75;2.40;;;;;;;;;;4987194;28;20284;-60
2023/07/31 09:30:11;;;;;;;3.85;2.60;;;;;;;;;;4986806;28;20224;-59
2023/07/31 09:32:37;;;;;;;3.53;2.58;;;;;;;;;;4969113;28;20217;-59
2023/07/31 09:35:12;;;;;;;3.53;2.70;;;;;;;;;;4986418;28;20707;-59
2023/07/31 09:37:37;;;;;;;4.07;2.92;;;;;;;;;;4987928;28;20652;-60
2023/07/31 09:40:03;;;;;;;4.28;3.20;;;;;;;;;;4987264;28;20290;-60
2023/07/31 09:42:30;;;;;;;9.20;3.30;;;;;;;;;;4988535;28;20209;-59
2023/07/31 09:44:55;;;;;;;7.45;3.55;;;;;;;;;;4991676;28;20228;-59
2023/07/31 09:47:23;;;;;;;7.70;3.42;;;;;;;;;;4973911;28;20229;-60
2023/07/31 09:49:48;;;;;;;5.93;4.00;;;;;;;;;;4989328;28;20279;-59
2023/07/31 09:52:13;;;;;;;6.43;3.97;;;;;;;;;;4991257;28;20609;-59
2023/07/31 09:54:39;;;;;;;8.85;4.15;;;;;;;;;;4991909;28;20292;-59
2023/07/31 09:57:04;;;;;;;7.00;4.40;;;;;;;;;;4989494;28;20279;-60
2023/07/31 09:59:29;;;;;;;8.68;4.57;;;;;;;;;;4972718;28;20228;-59
2023/07/31 10:01:56;;;;;;;8.98;4.80;;;;;;;;;;4992022;28;20630;-60
2023/07/31 10:04:25;;;;;;;9.45;4.88;;;;;;;;;;4990240;28;20240;-59
2023/07/31 10:06:51;;;;;;;6.88;5.22;;;;;;;;;;4972367;28;20201;-59
2023/07/31 10:09:16;;;;;;;8.68;5.43;;;;;;;;;;4991058;28;20240;-59
2023/07/31 10:11:43;;;;;;;11.82;5.55;;;;;;;;;;4973526;28;20216;-59
2023/07/31 10:14:09;;;;;;;13.20;6.05;;;;;;;;;;4988651;28;20213;-60
2023/07/31 10:16:34;;;;;;;12.18;5.60;;;;;;;;;;4972120;28;20217;-59
2023/07/31 10:18:59;;;;;;;8.70;5.82;;;;;;;;;;4974126;28;20279;-59
2023/07/31 10:21:25;;;;;;;10.10;5.93;;;;;;;;;;4990469;28;20217;-59
2023/07/31 10:23:50;;;;;;;30.73;6.78;;;;;;;;;;4988568;28;20652;-59
2023/07/31 10:26:16;;;;;;;10.90;7.00;;;;;;;;;;4973383;28;20243;-59
2023/07/31 10:28:42;;;;;;;10.60;5.95;;;;;;;;;;4991238;28;20205;-59
2023/07/31 10:31:07;;;;;;;11.63;6.88;;;;;;;;;;4970146;28;20215;-59
2023/07/31 10:33:32;;;;;;;15.25;6.68;;;;;;;;;;4991043;28;20233;-59
2023/07/31 10:36:14;;;;;;;19.83;7.53;;;;;;;;;;4990979;28;20252;-59
2023/07/31 10:38:39;;;;;;;10.68;6.78;;;;;;;;;;4989570;28;20220;-59
2023/07/31 10:41:09;;;;;;;13.93;7.47;;;;;;;;;;4983600;28;20844;-59
2023/07/31 10:43:34;;;;;;;10.77;6.72;;;;;;;;;;4990687;28;20304;-59
2023/07/31 10:45:59;;;;;;;11.52;7.18;;;;;;;;;;4989006;28;20701;-59
2023/07/31 10:48:24;;;;;;;10.77;6.90;;;;;;;;;;4987252;28;21089;-59
2023/07/31 10:50:50;;;;;;;10.73;7.25;;;;;;;;;;4971137;28;20213;-59
2023/07/31 10:53:22;;;;;;;12.88;7.28;;;;;;;;;;4976248;28;20886;-59
2023/07/31 10:55:48;;;;;;;28.13;8.07;;;;;;;;;;4976113;28;20575;-59
2023/07/31 10:58:14;;;;;;;13.82;7.28;;;;;;;;;;4958034;28;20662;-59
2023/07/31 11:00:40;;;;;;;14.68;8.25;;;;;;;;;;4979656;28;20375;-59
2023/07/31 11:03:06;;;;;;;16.10;7.53;;;;;;;;;;4983740;28;20233;-60
2023/07/31 11:05:41;;;;;;;16.83;7.30;;;;;;;;;;4982520;28;20760;-59
2023/07/31 11:08:10;;;;;;;12.80;7.70;;;;;;;;;;4982636;28;20579;-60
2023/07/31 11:10:35;;;;;;;14.77;7.40;;;;;;;;;;4983895;28;20798;-59
2023/07/31 11:13:01;;;;;;;11.93;7.43;;;;;;;;;;4982519;28;20651;-60
2023/07/31 11:15:26;;;;;;;10.65;7.07;;;;;;;;;;4960271;28;20684;-59
2023/07/31 11:17:52;;;;;;;11.48;6.80;;;;;;;;;;4976215;28;20205;-59
2023/07/31 11:20:17;;;;;;;15.23;7.32;;;;;;;;;;4975660;28;20221;-59
2023/07/31 11:22:42;;;;;;;20.63;7.28;;;;;;;;;;4976531;28;20224;-59
2023/07/31 11:25:08;;;;;;;16.73;6.90;;;;;;;;;;4983164;28;20317;-59
2023/07/31 11:27:38;;;;;;;19.50;7.65;;;;;;;;;;4983367;28;20358;-59
2023/07/31 11:30:04;;;;;;;14.77;6.88;;;;;;;;;;4982304;28;20209;-60
2023/07/31 11:32:29;;;;;;;13.13;6.80;;;;;;;;;;4983125;28;20221;-59
2023/07/31 11:34:54;;;;;;;14.65;7.32;;;;;;;;;;4982137;28;20729;-60
2023/07/31 11:37:20;;;;;;;10.60;6.75;;;;;;;;;;4982745;28;20681;-61
2023/07/31 11:39:58;;;;;;;12.93;7.38;;;;;;;;;;4974098;28;21152;-61
2023/07/31 11:42:23;;;;;;;14.63;7.38;;;;;;;;;;4977883;28;20744;-61
2023/07/31 11:44:49;;;;;;;10.00;7.28;;;;;;;;;;4976741;28;20229;-60
2023/07/31 11:47:14;;;;;;;12.07;7.00;;;;;;;;;;4982822;28;20248;-60
2023/07/31 11:49:40;;;;;;;13.40;7.03;;;;;;;;;;4956276;28;20301;-61
2023/07/31 11:52:05;;;;;;;8.95;6.43;;;;;;;;;;4982214;28;20220;-61
2023/07/31 11:54:30;;;;;;;11.13;6.82;;;;;;;;;;4983872;28;20260;-61
2023/07/31 11:56:57;;;;;;;11.60;6.35;;;;;;;;;;4957654;28;20267;-60
2023/07/31 11:59:22;;;;;;;11.27;6.13;;;;;;;;;;4981579;28;21091;-61
2023/07/31 12:01:53;;;;;;;8.48;6.00;;;;;;;;;;4977472;28;20217;-61
2023/07/31 12:04:19;;;;;;;15.07;6.50;;;;;;;;;;4947875;28;20249;-60
2023/07/31 12:06:44;;;;;;;18.83;6.97;;;;;;;;;;4974141;28;20271;-60
2023/07/31 12:09:10;;;;;;;79.95;9.55;;;;;;;;;;4979439;28;20608;-60
2023/07/31 12:11:43;;;;;;;10.75;6.80;;;;;;;;;;4983677;28;20315;-60
2023/07/31 12:14:18;;;;;;;9.77;6.13;;;;;;;;;;4981799;28;20224;-61
2023/07/31 12:16:43;;;;;;;11.18;6.22;;;;;;;;;;4980912;28;20739;-61
2023/07/31 12:19:08;;;;;;;9.65;5.30;;;;;;;;;;4982741;28;20540;-61
2023/07/31 12:21:34;;;;;;;9.82;5.70;;;;;;;;;;4983570;28;20229;-61
2023/07/31 12:23:59;;;;;;;9.75;5.60;;;;;;;;;;4976159;28;20244;-61
2023/07/31 12:26:24;;;;;;;9.07;5.30;;;;;;;;;;4974822;28;20213;-61
2023/07/31 12:28:50;;;;;;;8.60;5.75;;;;;;;;;;4947183;28;20318;-61
2023/07/31 12:31:17;;;;;;;9.10;5.78;;;;;;;;;;4976092;28;20628;-61
2023/07/31 12:33:42;;;;;;;8.38;5.20;;;;;;;;;;4981836;28;20213;-61
2023/07/31 12:36:10;;;;;;;8.70;5.50;;;;;;;;;;4982694;28;20216;-60
2023/07/31 12:38:35;;;;;;;10.82;6.03;;;;;;;;;;4981657;28;20250;-61
2023/07/31 12:41:00;;;;;;;12.45;5.57;;;;;;;;;;4979456;28;20352;-61
2023/07/31 12:43:26;;;;;;;12.52;6.43;;;;;;;;;;4982888;28;20232;-60
2023/07/31 12:45:51;;;;;;;21.50;6.60;;;;;;;;;;4980574;28;20600;-61
2023/07/31 12:48:16;;;;;;;10.50;5.90;;;;;;;;;;4948316;28;20640;-60
2023/07/31 12:50:42;;;;;;;15.68;6.57;;;;;;;;;;4974044;28;20561;-61
2023/07/31 12:53:07;;;;;;;10.77;5.97;;;;;;;;;;4975799;28;20281;-61
2023/07/31 12:55:34;;;;;;;8.77;6.13;;;;;;;;;;4981879;28;20232;-61
2023/07/31 12:58:00;;;;;;;12.18;6.75;;;;;;;;;;4981590;28;20237;-61
2023/07/31 13:00:26;;;;;;;8.88;5.78;;;;;;;;;;4953174;28;20898;-61
2023/07/31 13:02:51;;;;;;;9.50;6.40;;;;;;;;;;4982126;28;20225;-61
2023/07/31 13:05:17;;;;;;;11.93;6.85;;;;;;;;;;4979817;28;20818;-61
2023/07/31 13:07:42;;;;;;;9.27;6.68;;;;;;;;;;4982343;28;20240;-61
2023/07/31 13:10:08;;;;;;;9.50;6.40;;;;;;;;;;4975020;28;20213;-60
2023/07/31 13:12:33;;;;;;;11.13;6.75;;;;;;;;;;4973324;28;20220;-60
2023/07/31 13:14:59;;;;;;;17.15;7.28;;;;;;;;;;4974885;28;20220;-61
2023/07/31 13:17:24;;;;;;;12.40;6.53;;;;;;;;;;4983657;28;20223;-60
2023/07/31 13:19:49;;;;;;;8.88;6.28;;;;;;;;;;4985140;28;20318;-60
2023/07/31 13:22:15;;;;;;;9.98;6.25;;;;;;;;;;4984173;28;20228;-60
2023/07/31 13:24:40;;;;;;;17.75;7.43;;;;;;;;;;4986090;28;20696;-60
2023/07/31 13:27:05;;;;;;;9.48;5.65;;;;;;;;;;4987965;28;20229;-60
2023/07/31 13:29:32;;;;;;;15.93;6.88;;;;;;;;;;4986317;28;20217;-60
2023/07/31 13:31:57;;;;;;;14.75;6.80;;;;;;;;;;4982013;28;20546;-60
2023/07/31 13:34:22;;;;;;;15.50;6.43;;;;;;;;;;4974526;28;20216;-60
2023/07/31 13:36:47;;;;;;;14.60;6.53;;;;;;;;;;4977933;28;20659;-60
2023/07/31 13:39:13;;;;;;;8.48;6.43;;;;;;;;;;4981746;28;20228;-60
2023/07/31 13:41:38;;;;;;;11.93;6.40;;;;;;;;;;4983653;28;20586;-60
2023/07/31 13:44:03;;;;;;;11.25;5.72;;;;;;;;;;4984666;28;20345;-60
2023/07/31 13:46:29;;;;;;;10.07;5.28;;;;;;;;;;4986230;28;20589;-59
2023/07/31 13:48:55;;;;;;;7.45;5.30;;;;;;;;;;4984192;28;20283;-60
2023/07/31 13:51:21;;;;;;;8.13;5.25;;;;;;;;;;4984138;28;20330;-60
2023/07/31 13:53:46;;;;;;;8.10;5.25;;;;;;;;;;4985138;28;20304;-60
2023/07/31 13:56:11;;;;;;;6.63;4.88;;;;;;;;;;4975949;28;20694;-60
2023/07/31 13:58:37;;;;;;;9.80;5.53;;;;;;;;;;4975922;28;20260;-60
2023/07/31 14:01:03;;;;;;;18.33;5.80;;;;;;;;;;4978955;28;20213;-60
2023/07/31 14:03:28;;;;;;;39.22;6.43;;;;;;;;;;4984465;28;20634;-59
2023/07/31 14:05:55;;;;;;;9.02;5.15;;;;;;;;;;4983947;28;20220;-60
2023/07/31 14:08:20;;;;;;;9.23;4.90;;;;;;;;;;4984227;28;20228;-60
2023/07/31 14:10:45;;;;;;;9.70;5.00;;;;;;;;;;4984877;28;20267;-60
2023/07/31 14:13:11;;;;;;;12.20;5.85;;;;;;;;;;4958746;28;20224;-60
2023/07/31 14:15:36;;;;;;;9.55;5.18;;;;;;;;;;4983694;28;20220;-60
2023/07/31 14:18:02;;;;;;;9.30;5.55;;;;;;;;;;4978175;28;20910;-60
2023/07/31 14:20:27;;;;;;;8.45;5.60;;;;;;;;;;4977089;28;20267;-61
2023/07/31 14:22:53;;;;;;;9.70;5.60;;;;;;;;;;4976105;28;20213;-60
2023/07/31 14:25:18;;;;;;;10.60;5.78;;;;;;;;;;4982325;28;20231;-60